Flight Track Log - Related Links

Times and Time Zones

All times are in EDT time to prevent confusion due to time zone crossing. See the GEC8188 flight status page for this flight to view local times or setup timezone preferences in your user account.

Time Position Orientation Groundspeed Altitude Reporting Facility
EDT Latitude Longitude Course Direction KTS MPH feet Rate Location/Type
Fri 06:48:00 PM 57.3164 -42.5831 304° West  Level Estimated
Fri 06:49:00 PM 57.2980 -42.8091 262° West  Level Estimated
Fri 06:50:00 PM 57.2792 -43.0350 261° West  Level Estimated
Fri 06:51:00 PM 57.2600 -43.2606 261° West  Level Estimated
Fri 06:52:00 PM 57.2404 -43.4859 261° West  Level Estimated
Fri 06:53:00 PM 57.2204 -43.7110 261° West  Level Estimated
Fri 06:54:00 PM 57.2000 -43.9359 261° West  Level Estimated
Fri 06:55:00 PM 57.1792 -44.1605 260° West  Level Estimated
Fri 06:56:00 PM 57.1580 -44.3849 260° West  Level Estimated
Fri 06:57:00 PM 57.1364 -44.6090 260° West  Level Estimated
Fri 06:58:00 PM 57.1144 -44.8329 260° West  Level Estimated
Fri 06:59:00 PM 57.0920 -45.0564 260° West  Level Estimated
Fri 07:00:00 PM 57.0692 -45.2797 259° West  Level Estimated
Fri 07:01:00 PM 57.0460 -45.5028 259° West  Level Estimated
Fri 07:02:00 PM 57.0224 -45.7255 259° West  Level Estimated
Fri 07:03:00 PM 56.9984 -45.9479 259° West  Level Estimated
Fri 07:04:00 PM 56.9740 -46.1701 259° West  Level Estimated
Fri 07:05:00 PM 56.9493 -46.3920 259° West  Level Estimated
Fri 07:06:00 PM 56.9241 -46.6136 258° West  Level Estimated
Fri 07:07:00 PM 56.8985 -46.8349 258° West  Level Estimated
Fri 07:08:00 PM 56.8726 -47.0558 258° West  Level Estimated
Fri 07:09:00 PM 56.8462 -47.2765 258° West  Level Estimated
Fri 07:10:00 PM 56.8195 -47.4968 258° West  Level Estimated
Fri 07:11:00 PM 56.7924 -47.7169 257° West  Level Estimated
Fri 07:12:00 PM 56.7649 -47.9366 257° West  Level Estimated
Fri 07:13:00 PM 56.7370 -48.1560 257° West  Level Estimated
Fri 07:14:00 PM 56.7087 -48.3750 257° West  Level Estimated
Fri 07:15:00 PM 56.6801 -48.5938 257° West  Level Estimated
Fri 07:16:00 PM 56.6510 -48.8122 256° West  Level Estimated
Fri 07:17:00 PM 56.6216 -49.0302 256° West  Level Estimated
Fri 07:18:00 PM 56.5918 -49.2480 256° West  Level Estimated
Fri 07:19:00 PM 56.5616 -49.4653 256° West  Level Estimated
Fri 07:19:24 PM 65.0000 -55.6500 255° West 460 529 32,000  Level Gander Center
Fri 07:20:00 PM 56.5311 -49.6824 256° West  Level Estimated
Fri 07:20:24 PM 64.9500 -55.9500 249° West 460 529 32,000  Level Gander Center
Fri 07:21:00 PM 56.5001 -49.8990 256° West  Level Estimated
Fri 07:21:24 PM 64.8833 -56.1833 236° Southwest 460 529 32,000  Level Gander Center
Fri 07:22:00 PM 56.4688 -50.1153 255° West  Level Estimated
Fri 07:22:24 PM 64.8500 -56.4667 255° West 460 529 32,000  Level Gander Center
Fri 07:22:50 PM 64.8167 -56.5500 227° Southwest 460 529 32,000  Level Gander Center
Fri 07:23:00 PM 56.4371 -50.3313 255° West  Level Estimated
Fri 07:23:50 PM 64.7500 -56.8333 241° Southwest 460 529 32,000  Level Gander Center
Fri 07:24:00 PM 56.4051 -50.5469 255° West  Level Estimated
Fri 07:24:24 PM 64.7333 -56.9500 252° West 470 541 32,000  Level Gander Center
Fri 07:25:24 PM 64.6667 -57.2667 244° Southwest 460 529 32,000  Level Gander Center
Fri 07:26:24 PM 64.6167 -57.5000 244° Southwest 460 529 32,000  Level Gander Center
Fri 07:26:50 PM 64.5833 -57.6333 240° Southwest 460 529 32,000  Level Gander Center
Fri 07:27:50 PM 64.5167 -57.8667 236° Southwest 460 529 32,000  Level Gander Center
Fri 07:28:50 PM 64.4667 -58.1000 244° Southwest 460 529 32,000  Level Gander Center
Fri 07:29:24 PM 64.4500 -58.2500 256° West 480 552 32,000  Level Gander Center
Fri 07:30:24 PM 64.3667 -58.5333 236° Southwest 470 541 32,000  Level Gander Center
Fri 07:31:24 PM 64.3000 -58.7667 237° Southwest 460 529 32,000  Level Gander Center
Fri 07:31:50 PM 64.2833 -58.8833 252° West 460 529 32,000  Level Gander Center
Fri 07:32:24 PM 64.2667 -59.0333 256° West 460 529 32,000  Level Gander Center
Fri 07:33:24 PM 64.2000 -59.2667 237° Southwest 460 529 32,000  Level Gander Center
Fri 07:33:50 PM 64.1667 -59.3500 227° Southwest 450 518 32,000  Level Gander Center
Fri 07:34:24 PM 64.1333 -59.5000 243° Southwest 450 518 32,000  Level Gander Center
Fri 07:35:24 PM 64.0667 -59.7667 240° Southwest 450 518 32,000  Level Gander Center
Fri 07:36:24 PM 64.0000 -60.0000 237° Southwest 450 518 32,000  Level Gander Center
Fri 07:37:24 PM 63.9500 -60.2333 244° Southwest 450 518 32,000  Level Gander Center
Fri 07:37:50 PM 63.9167 -60.3500 237° Southwest 450 518 32,000  Level Gander Center
Fri 07:38:50 PM 63.8333 -60.5667 229° Southwest 450 518 32,000  Level Gander Center
Fri 07:39:24 PM 63.8000 -60.7167 243° Southwest 450 518 32,000  Level Gander Center
Fri 07:40:24 PM 63.7167 -60.9500 231° Southwest 450 518 32,000  Level Gander Center
Fri 07:40:50 PM 63.7000 -61.0167 241° Southwest 450 518 32,000  Level Gander Center
Fri 07:41:24 PM 63.6500 -61.1667 233° Southwest 450 518 32,000  Level Gander Center
Fri 07:42:24 PM 63.5667 -61.4000 231° Southwest 450 518 32,000  Level Gander Center
Fri 07:43:24 PM 63.5000 -61.6167 235° Southwest 450 518 32,000  Level Gander Center
Fri 07:44:24 PM 63.4167 -61.8333 229° Southwest 450 518 32,000  Level Gander Center
Fri 07:45:24 PM 63.3500 -62.0500 236° Southwest 460 529 32,000  Level Gander Center
Fri 07:45:50 PM 63.3000 -62.1667 226° Southwest 460 529 32,000  Level Gander Center
Fri 07:46:24 PM 63.2667 -62.3167 244° Southwest 450 518 32,000  Level Gander Center
Fri 07:47:36 PM 63.1833 -62.4667 219° Southwest 450 518 32,000  Level Montreal Center
Fri 07:48:36 PM 63.0833 -62.7333 230° Southwest 450 518 32,000  Level Montreal Center
Fri 07:49:36 PM 63.0167 -62.9167 231° Southwest 450 518 32,000 300 Level Montreal Center
Fri 07:50:36 PM 62.9500 -63.1667 240° Southwest 450 518 32,600 850 Climbing Montreal Center
Fri 07:51:36 PM 62.8833 -63.3833 236° Southwest 450 518 33,700 700 Climbing Montreal Center
Fri 07:52:36 PM 62.8167 -63.6333 240° Southwest 440 506 34,000 150 Climbing Montreal Center
Fri 07:53:36 PM 62.7500 -63.8500 236° Southwest 440 506 34,000  Level Montreal Center
Fri 07:54:36 PM 62.6833 -64.0667 236° Southwest 440 506 34,000  Level Montreal Center
Fri 07:55:36 PM 62.6000 -64.3167 234° Southwest 450 518 34,000  Level Montreal Center
Fri 07:56:36 PM 62.5333 -64.5167 234° Southwest 450 518 34,000  Level Montreal Center
Fri 07:57:36 PM 62.4667 -64.7333 236° Southwest 450 518 34,000  Level Montreal Center
Fri 07:58:36 PM 62.4000 -64.9333 234° Southwest 450 518 34,000  Level Montreal Center
Fri 07:59:36 PM 62.3167 -65.1833 234° Southwest 450 518 34,000  Level Montreal Center
Fri 08:00:36 PM 62.2500 -65.3833 234° Southwest 450 518 34,000 50 Level Montreal Center
Fri 08:01:36 PM 62.1667 -65.6333 235° Southwest 450 518 34,100 50 Climbing Montreal Center
Fri 08:02:36 PM 62.0833 -65.8333 228° Southwest 440 506 34,100 -50 Level Montreal Center
Fri 08:03:36 PM 62.0167 -66.0833 240° Southwest 450 518 34,000 -50 Descending Montreal Center
Fri 08:04:36 PM 61.9500 -66.2833 235° Southwest 450 518 34,000  Level Montreal Center
Fri 08:05:36 PM 61.8833 -66.4833 235° Southwest 440 506 34,000 50 Level Montreal Center
Fri 08:06:36 PM 61.8000 -66.6833 229° Southwest 450 518 34,100 50 Climbing Montreal Center
Fri 08:07:36 PM 61.7333 -66.9167 239° Southwest 450 518 34,100 -50 Level Montreal Center
Fri 08:08:36 PM 61.6500 -67.0833 224° Southwest 460 529 34,000 -50 Descending Montreal Center
Fri 08:09:36 PM 61.5667 -67.2833 229° Southwest 450 518 34,000  Level Montreal Center
Fri 08:10:36 PM 61.4667 -67.4833 224° Southwest 450 518 34,000  Level Montreal Center
Fri 08:11:36 PM 61.3833 -67.6833 229° Southwest 450 518 34,000  Level Montreal Center
Fri 08:12:36 PM 61.2833 -67.8500 219° Southwest 450 518 34,000  Level Montreal Center
Fri 08:13:36 PM 61.2167 -68.0333 233° Southwest 450 518 34,000  Level Montreal Center
Fri 08:14:36 PM 61.1167 -68.2000 219° Southwest 440 506 34,000  Level Montreal Center
Fri 08:15:36 PM 61.0333 -68.4000 229° Southwest 450 518 34,000  Level Montreal Center
Fri 08:16:36 PM 60.9500 -68.6000 229° Southwest 460 529 34,000  Level Montreal Center
Fri 08:17:36 PM 60.8500 -68.7500 216° Southwest 450 518 34,000 50 Level Montreal Center
Fri 08:18:36 PM 60.7667 -68.9500 230° Southwest 450 518 34,100  Climbing Montreal Center
Fri 08:19:36 PM 60.6833 -69.1333 227° Southwest 440 506 34,000 -50 Descending Montreal Center
Fri 08:20:36 PM 60.5833 -69.2833 216° Southwest 440 506 34,000  Level Montreal Center
Fri 08:21:36 PM 60.5000 -69.4833 230° Southwest 440 506 34,000  Level Montreal Center
Fri 08:22:36 PM 60.4000 -69.6333 217° Southwest 450 518 34,000 50 Level Montreal Center
Fri 08:23:36 PM 60.3167 -69.8167 227° Southwest 460 529 34,100 50 Climbing Montreal Center
Fri 08:24:36 PM 60.2167 -70.0000 222° Southwest 460 529 34,100 -50 Level Montreal Center
Fri 08:25:36 PM 60.1333 -70.1500 222° Southwest 450 518 34,000 -50 Descending Montreal Center
Fri 08:26:36 PM 60.0333 -70.3500 225° Southwest 450 518 34,000  Level Montreal Center
Fri 08:27:36 PM 59.9500 -70.4833 219° Southwest 440 506 34,000 50 Level Montreal Center
Fri 08:28:36 PM 59.8667 -70.6667 228° Southwest 450 518 34,100 50 Climbing Montreal Center
Fri 08:29:36 PM 59.7667 -70.8500 223° Southwest 450 518 34,100 -50 Level Montreal Center
Fri 08:30:36 PM 59.6667 -71.0000 217° Southwest 450 518 34,000 -50 Descending Montreal Center
Fri 08:31:36 PM 59.5833 -71.1833 228° Southwest 440 506 34,000  Level Montreal Center
Fri 08:32:36 PM 59.4833 -71.3667 223° Southwest 440 506 34,000  Level Montreal Center
Fri 08:33:36 PM 59.3833 -71.5000 214° Southwest 440 506 34,000  Level Montreal Center
Fri 08:34:36 PM 59.3167 -71.6833 235° Southwest 450 518 34,000  Level Montreal Center
Fri 08:35:36 PM 59.2167 -71.8167 214° Southwest 450 518 34,000  Level Montreal Center
Fri 08:36:36 PM 59.1167 -72.0000 223° Southwest 450 518 34,000  Level Montreal Center
Fri 08:37:36 PM 59.0167 -72.1667 221° Southwest 450 518 34,000  Level Montreal Center
Fri 08:38:36 PM 58.9167 -72.3167 218° Southwest 450 518 34,000 50 Level Montreal Center
Fri 08:39:36 PM 58.8333 -72.4833 226° Southwest 460 529 34,100  Climbing Montreal Center
Fri 08:40:36 PM 58.7500 -72.6500 226° Southwest 440 506 34,000 -50 Descending Montreal Center
Fri 08:41:36 PM 58.6500 -72.8000 218° Southwest 440 506 34,000  Level Montreal Center
Fri 08:42:36 PM 58.5500 -72.9667 221° Southwest 440 506 34,000  Level Montreal Center
Fri 08:43:36 PM 58.4500 -73.1333 221° Southwest 440 506 34,000  Level Montreal Center
Fri 08:44:36 PM 58.3667 -73.2667 220° Southwest 440 506 34,000  Level Montreal Center
Fri 08:45:36 PM 58.2833 -73.4333 226° Southwest 440 506 34,000 50 Level Montreal Center
Fri 08:46:36 PM 58.1833 -73.5667 215° Southwest 440 506 34,100 50 Climbing Montreal Center
Fri 08:47:36 PM 58.0833 -73.7333 221° Southwest 440 506 34,100 -50 Level Montreal Center
Fri 08:48:36 PM 58.0000 -73.8667 220° Southwest 440 506 34,000 350 Descending Montreal Center
Fri 08:49:36 PM 57.9000 -74.0333 222° Southwest 440 506 34,800 950 Climbing Montreal Center
Fri 08:50:36 PM 57.8000 -74.1667 215° Southwest 440 506 35,900 600 Climbing Montreal Center
Fri 08:51:36 PM 57.7000 -74.3167 219° Southwest 440 506 36,000 50 Climbing Montreal Center
Fri 08:52:36 PM 57.6167 -74.4500 221° Southwest 440 506 36,000  Level Montreal Center
Fri 08:53:36 PM 57.5167 -74.6167 222° Southwest 440 506 36,000  Level Montreal Center
Fri 08:54:36 PM 57.4167 -74.7667 219° Southwest 440 506 36,000  Level Montreal Center
Fri 08:55:36 PM 57.3167 -74.9000 216° Southwest 430 495 36,000  Level Montreal Center
Fri 08:56:36 PM 57.2167 -75.0667 222° Southwest 440 506 36,000  Level Montreal Center
Fri 08:57:06 PM 57.1667 -75.1000 200° South 450 518 36,000  Level Montreal Center
Fri 08:58:06 PM 57.0833 -75.2500 224° Southwest 440 506 36,000  Level Montreal Center
Fri 08:59:06 PM 56.9833 -75.4000 219° Southwest 440 506 36,000  Level Montreal Center
Fri 09:00:06 PM 56.8833 -75.5333 216° Southwest 430 495 36,000  Level Montreal Center
Fri 09:02:41 PM 56.6333 -75.9000 219° Southwest 440 506 36,000  Level Montreal Center
Fri 09:03:41 PM 56.5500 -76.0167 218° Southwest 430 495 36,000  Level Montreal Center
Fri 09:04:41 PM 56.4500 -76.1667 220° Southwest 430 495 36,000 50 Level Montreal Center
Fri 09:05:41 PM 56.3500 -76.3000 216° Southwest 440 506 36,100 50 Climbing Montreal Center
Fri 09:06:41 PM 56.2500 -76.4500 220° Southwest 430 495 36,100 -50 Level Montreal Center
Fri 09:07:41 PM 56.1667 -76.5667 218° Southwest 430 495 36,000 -50 Descending Montreal Center
Fri 09:08:41 PM 56.0667 -76.7167 220° Southwest 430 495 36,000  Level Montreal Center
Fri 09:09:41 PM 55.9667 -76.8333 213° Southwest 430 495 36,000  Level Montreal Center
Fri 09:10:41 PM 55.8833 -76.9833 225° Southwest 430 495 36,000 50 Level Montreal Center
Fri 09:11:41 PM 55.7833 -77.1000 213° Southwest 440 506 36,100 50 Climbing Montreal Center
Fri 09:12:41 PM 55.6667 -77.2500 216° Southwest 440 506 36,100 -50 Level Montreal Center
Fri 09:13:41 PM 55.5833 -77.3667 218° Southwest 440 506 36,000 -50 Descending Montreal Center
Fri 09:14:41 PM 55.4833 -77.4833 213° Southwest 430 495 36,000  Level Montreal Center
Fri 09:15:41 PM 55.4000 -77.6167 222° Southwest 430 495 36,000  Level Montreal Center
Fri 09:16:41 PM 55.3000 -77.7333 214° Southwest 420 483 36,000  Level Montreal Center
Fri 09:17:41 PM 55.2000 -77.8167 205° Southwest 430 495 36,000  Level Montreal Center
Fri 09:18:41 PM 55.1000 -77.9000 205° Southwest 430 495 36,000  Level Montreal Center
Fri 09:19:41 PM 54.9667 -78.0167 207° Southwest 430 495 36,000 50 Level Montreal Center
Fri 09:20:41 PM 54.8500 -78.1000 202° Southwest 430 495 36,100 50 Climbing Montreal Center
Fri 09:21:41 PM 54.7500 -78.1833 206° Southwest 430 495 36,100  Level Montreal Center
Fri 09:22:41 PM 54.6500 -78.2667 206° Southwest 430 495 36,100 -50 Level Montreal Center
Fri 09:23:41 PM 54.5333 -78.3500 203° Southwest 430 495 36,000 -50 Descending Montreal Center
Fri 09:24:41 PM 54.4333 -78.4167 201° Southwest 420 483 36,000  Level Montreal Center
Fri 09:25:41 PM 54.3167 -78.5000 203° Southwest 420 483 36,000  Level Montreal Center
Fri 09:26:41 PM 54.2000 -78.5833 203° Southwest 420 483 36,000  Level Montreal Center
Fri 09:27:41 PM 54.1000 -78.6667 206° Southwest 420 483 36,000  Level Montreal Center
Fri 09:28:41 PM 54.0000 -78.7500 206° Southwest 420 483 36,000  Level Montreal Center
Fri 09:29:41 PM 53.9000 -78.8167 201° Southwest 420 483 36,000  Level Montreal Center
Fri 09:31:00 PM 53.7467 -78.9229 202° Southwest  Level FlightAware Approximate
Fri 09:31:53 PM 53.6500 -79.0000 202° Southwest 430 495 36,000  Level Montreal Center
Fri 09:32:53 PM 53.5333 -79.0833 203° Southwest 410 472 36,000  Level Montreal Center
Fri 09:33:53 PM 53.4333 -79.1500 202° Southwest 410 472 36,000  Level Montreal Center
Fri 09:34:53 PM 53.3333 -79.2333 206° Southwest 410 472 36,000  Level Montreal Center
Fri 09:35:53 PM 53.2333 -79.3167 207° Southwest 410 472 36,000  Level Montreal Center
Fri 09:36:53 PM 53.1167 -79.3833 199° South 410 472 36,000  Level Montreal Center
Fri 09:37:53 PM 53.0167 -79.4667 207° Southwest 410 472 36,000 50 Level Montreal Center
Fri 09:38:53 PM 52.9167 -79.5333 202° Southwest 410 472 36,100  Climbing Montreal Center
Fri 09:39:53 PM 52.8167 -79.6167 207° Southwest 410 472 36,000 -50 Descending Montreal Center
Fri 09:40:53 PM 52.7167 -79.6833 202° Southwest 410 472 36,000  Level Montreal Center
Fri 09:41:53 PM 52.5833 -79.7667 201° Southwest 410 472 36,000  Level Montreal Center
Fri 09:42:53 PM 52.4833 -79.8333 202° Southwest 420 483 36,000  Level Montreal Center
Fri 09:43:53 PM 52.3833 -79.9167 207° Southwest 420 483 36,000  Level Montreal Center
Fri 09:44:53 PM 52.2667 -79.9833 199° South 420 483 36,000  Level Montreal Center
Fri 09:45:53 PM 52.1667 -80.0500 202° Southwest 420 483 36,000  Level Montreal Center
Fri 09:46:53 PM 52.0500 -80.1333 204° Southwest 410 472 36,000  Level Montreal Center
Fri 09:47:53 PM 51.9500 -80.2000 202° Southwest 420 483 36,000  Level Montreal Center
Fri 09:48:53 PM 51.8500 -80.2500 197° South 410 472 36,000  Level Montreal Center
Fri 09:49:53 PM 51.7333 -80.3333 204° Southwest 410 472 36,000  Level Montreal Center
Fri 09:50:53 PM 51.6167 -80.3833 195° South 410 472 36,000  Level Montreal Center
Fri 09:51:53 PM 51.5167 -80.4500 203° Southwest 410 472 36,000  Level Montreal Center
Fri 09:52:53 PM 51.4167 -80.5333 207° Southwest 410 472 36,000  Level Montreal Center
Fri 09:53:53 PM 51.3167 -80.6000 203° Southwest 410 472 36,000  Level Montreal Center
Fri 09:54:53 PM 51.2000 -80.7000 208° Southwest 400 460 36,000  Level Montreal Center
Fri 09:55:52 PM 51.1167 -80.7667 207° Southwest 400 460 36,000  Level Toronto Center
Fri 09:56:52 PM 51.0167 -80.8667 212° Southwest 400 460 36,000  Level Toronto Center
Fri 09:57:52 PM 50.9333 -80.9500 212° Southwest 410 472 36,000  Level Toronto Center
Fri 09:58:52 PM 50.8333 -81.0333 208° Southwest 410 472 36,000  Level Toronto Center
Fri 09:59:52 PM 50.7333 -81.1333 212° Southwest 410 472 36,000  Level Toronto Center
Fri 10:00:52 PM 50.6333 -81.2000 203° Southwest 410 472 36,000  Level Toronto Center
Fri 10:01:52 PM 50.5333 -81.2833 208° Southwest 410 472 36,000  Level Toronto Center
Fri 10:02:52 PM 50.4333 -81.3500 203° Southwest 400 460 36,000  Level Toronto Center
Fri 10:03:52 PM 50.3333 -81.4500 213° Southwest 400 460 36,000  Level Toronto Center
Fri 10:04:52 PM 50.2333 -81.5333 208° Southwest 400 460 36,000  Level Toronto Center
Fri 10:05:52 PM 50.1333 -81.6000 203° Southwest 410 472 36,000  Level Toronto Center
Fri 10:06:52 PM 50.0333 -81.6833 208° Southwest 410 472 36,000  Level Toronto Center
Fri 10:07:52 PM 49.9333 -81.7500 203° Southwest 410 472 36,000  Level Toronto Center
Fri 10:08:52 PM 49.8333 -81.8500 213° Southwest 410 472 36,000  Level Toronto Center
Fri 10:09:52 PM 49.7333 -81.9167 203° Southwest 420 483 36,000  Level Toronto Center
Fri 10:10:52 PM 49.6000 -82.0000 202° Southwest 420 483 36,000  Level Toronto Center
Fri 10:11:52 PM 49.5000 -82.0833 208° Southwest 420 483 36,000  Level Toronto Center
Fri 10:12:52 PM 49.4000 -82.1667 208° Southwest 410 472 36,000  Level Toronto Center
Fri 10:13:52 PM 49.3000 -82.2333 204° Southwest 410 472 36,000  Level Toronto Center
Fri 10:14:52 PM 49.2000 -82.3000 204° Southwest 410 472 36,000 50 Level Toronto Center
Fri 10:15:52 PM 49.1000 -82.4000 213° Southwest 420 483 36,100  Climbing Toronto Center
Fri 10:16:52 PM 49.0000 -82.4667 204° Southwest 420 483 36,000 -50 Descending Toronto Center
Fri 10:17:52 PM 48.9000 -82.5500 209° Southwest 420 483 36,000  Level Toronto Center
Fri 10:18:52 PM 48.8000 -82.6333 209° Southwest 420 483 36,000  Level Toronto Center
Fri 10:19:52 PM 48.6833 -82.7167 205° Southwest 410 472 36,000  Level Toronto Center
Fri 10:20:52 PM 48.5667 -82.7833 201° Southwest 410 472 36,000  Level Toronto Center
Fri 10:21:52 PM 48.4667 -82.8500 204° Southwest 420 483 36,000  Level Toronto Center
Fri 10:22:52 PM 48.3667 -82.9333 209° Southwest 420 483 36,000  Level Toronto Center
Fri 10:23:52 PM 48.2667 -83.0167 209° Southwest 430 495 36,000  Level Toronto Center
Fri 10:24:52 PM 48.1500 -83.0833 201° Southwest 420 483 36,000  Level Toronto Center
Fri 10:25:52 PM 48.0667 -83.1667 214° Southwest 420 483 36,000  Level Toronto Center
Fri 10:31:01 PM 47.5150 -83.5610 214° Southwest 426 490 36,000  Level FlightAware ADS-B
Fri 10:31:46 PM 47.4360 -83.6160 205° Southwest 426 490 36,000  Level FlightAware ADS-B
Fri 10:32:31 PM 47.3550 -83.6730 205° Southwest 425 489 36,000  Level FlightAware ADS-B
Fri 10:33:11 PM 47.2850 -83.7220 205° Southwest 424 488 36,000  Level FlightAware ADS-B
Fri 10:33:51 PM 47.2120 -83.7720 205° Southwest 425 489 36,000  Level FlightAware ADS-B
Fri 10:34:36 PM 47.1350 -83.8250 205° Southwest 424 488 36,000  Level FlightAware ADS-B
Fri 10:35:16 PM 47.0630 -83.8740 205° Southwest 426 490 36,000  Level FlightAware ADS-B
Fri 10:35:56 PM 46.9930 -83.9220 205° Southwest 427 491 36,000  Level FlightAware ADS-B
Fri 10:36:41 PM 46.9110 -83.9780 205° Southwest 428 493 36,000  Level FlightAware ADS-B
Fri 10:37:21 PM 46.8410 -84.0260 205° Southwest 429 494 36,000  Level FlightAware ADS-B
Fri 10:38:06 PM 46.7600 -84.0810 205° Southwest 430 495 36,000  Level FlightAware ADS-B
Fri 10:38:46 PM 46.6880 -84.1300 205° Southwest 430 495 36,000  Level FlightAware ADS-B
Fri 10:39:31 PM 46.6050 -84.1860 205° Southwest 432 497 36,000  Level FlightAware ADS-B
Fri 10:40:11 PM 46.5330 -84.2350 205° Southwest 433 498 36,000  Level FlightAware ADS-B
Fri 10:40:51 PM 46.4590 -84.2840 205° Southwest 433 498 36,000  Level FlightAware ADS-B
Fri 10:41:36 PM 46.3770 -84.3280 200° South 441 507 36,000  Level FlightAware ADS-B
Fri 10:42:16 PM 46.2980 -84.3550 193° South 438 504 36,000  Level FlightAware ADS-B
Fri 10:42:56 PM 46.2190 -84.3820 193° South 437 503 36,000  Level FlightAware ADS-B
Fri 10:43:41 PM 46.1300 -84.4130 194° South 435 501 36,000  Level FlightAware ADS-B
Fri 10:44:21 PM 46.0510 -84.4410 194° South 434 499 36,000  Level FlightAware ADS-B
Fri 10:45:06 PM 45.9640 -84.4700 193° South 433 498 36,000  Level FlightAware ADS-B
Fri 10:45:41 PM 45.8950 -84.4930 193° South 432 497 36,000  Level FlightAware ADS-B
Fri 10:46:31 PM 45.7980 -84.5270 194° South 431 496 36,000  Level FlightAware ADS-B
Fri 10:47:11 PM 45.7190 -84.5540 193° South 433 498 36,000  Level FlightAware ADS-B
Fri 10:47:51 PM 45.6420 -84.5800 193° South 436 502 36,000  Level FlightAware ADS-B
Fri 10:48:31 PM 45.5620 -84.6070 193° South 438 504 36,000 71 Level FlightAware ADS-B
Fri 10:49:16 PM 45.4750 -84.6360 193° South 440 506 36,100 71 Climbing FlightAware ADS-B
Fri 10:49:56 PM 45.3970 -84.6620 193° South 438 504 36,100 -71 Level FlightAware ADS-B
Fri 10:50:41 PM 45.3060 -84.6930 193° South 433 498 36,000 -71 Descending FlightAware ADS-B
Fri 10:51:21 PM 45.2270 -84.7180 193° South 431 496 36,000  Level FlightAware ADS-B
Fri 10:52:06 PM 45.1420 -84.7470 194° South 430 495 36,000  Level FlightAware ADS-B
Fri 10:52:46 PM 45.0650 -84.7730 193° South 432 497 36,000  Level FlightAware ADS-B
Fri 10:53:41 PM 44.9620 -84.8070 193° South 433 498 36,000  Level FlightAware ADS-B
Fri 10:54:21 PM 44.8950 -84.8280 193° South 433 498 36,000  Level FlightAware ADS-B
Fri 10:55:01 PM 44.8290 -84.8500 193° South 433 498 36,000  Level FlightAware ADS-B
Fri 10:55:51 PM 44.7460 -84.8770 193° South 433 498 36,000 -200 Level FlightAware ADS-B
Fri 10:56:31 PM 44.6240 -84.9180 193° South 433 498 35,700 -675 Descending FlightAware ADS-B
Fri 10:57:11 PM 44.5450 -84.9430 193° South 428 493 35,100 -960 Descending FlightAware ADS-B
Fri 10:57:46 PM 44.4800 -84.9650 194° South 420 483 34,500 -1,059 Descending FlightAware ADS-B
Fri 10:58:36 PM 44.3850 -84.9950 193° South 406 467 33,600 -733 Descending FlightAware ADS-B
Fri 10:59:16 PM 44.3190 -85.0160 193° South 404 465 33,400 -988 Descending FlightAware ADS-B
Fri 11:00:01 PM 44.2320 -85.0450 193° South 394 453 32,200 -988 Descending FlightAware ADS-B
Fri 11:00:41 PM 44.1580 -85.0690 193° South 396 456 32,000 -141 Descending FlightAware ADS-B
Fri 11:01:26 PM 44.0780 -85.0940 193° South 396 456 32,000  Level FlightAware ADS-B
Fri 11:02:06 PM 44.0070 -85.1170 193° South 397 457 32,000  Level FlightAware ADS-B
Fri 11:02:51 PM 43.9270 -85.1420 193° South 398 458 32,000  Level FlightAware ADS-B
Fri 11:03:31 PM 43.8550 -85.1650 193° South 398 458 32,000  Level FlightAware ADS-B
Fri 11:04:11 PM 43.7830 -85.1880 193° South 399 459 32,000  Level FlightAware ADS-B
Fri 11:04:56 PM 43.7010 -85.2130 192° South 398 458 32,000  Level FlightAware ADS-B
Fri 11:05:36 PM 43.6280 -85.2370 193° South 399 459 32,000  Level FlightAware ADS-B
Fri 11:06:21 PM 43.5500 -85.2610 193° South 401 461 32,000  Level FlightAware ADS-B
Fri 11:06:46 PM 43.5050 -85.2870 203° Southwest 391 450 32,000  Level FlightAware ADS-B
Fri 11:07:31 PM 43.4500 -85.3680 227° Southwest 388 447 32,000  Level FlightAware ADS-B
Fri 11:08:11 PM 43.4020 -85.4410 228° Southwest 390 449 32,000  Level FlightAware ADS-B
Fri 11:08:51 PM 43.3540 -85.5170 229° Southwest 391 450 32,000 -141 Level FlightAware ADS-B
Fri 11:09:36 PM 43.3010 -85.5980 228° Southwest 390 449 31,800 -565 Descending FlightAware ADS-B
Fri 11:10:16 PM 43.2550 -85.6700 229° Southwest 383 441 31,200 -975 Descending FlightAware ADS-B
Fri 11:10:56 PM 43.2060 -85.7450 228° Southwest 380 437 30,500 -1,059 Descending FlightAware ADS-B
Fri 11:11:41 PM 43.1530 -85.8270 228° Southwest 378 435 29,700 -988 Descending FlightAware ADS-B
Fri 11:12:21 PM 43.1060 -85.8990 228° Southwest 376 433 29,100 -918 Descending FlightAware ADS-B
Fri 11:13:06 PM 43.0580 -85.9800 231° Southwest 384 442 28,400 -1,200 Descending FlightAware ADS-B
Fri 11:13:36 PM 43.0260 -86.0430 235° Southwest 401 461 27,600 -1,725 Descending FlightAware ADS-B
Fri 11:14:26 PM 42.9720 -86.1450 234° Southwest 398 458 26,100 -1,832 Descending FlightAware ADS-B
Fri 11:15:11 PM 42.9230 -86.2390 235° Southwest 400 460 24,700 -1,906 Descending FlightAware ADS-B
Fri 11:15:51 PM 42.8810 -86.3180 234° Southwest 391 450 23,400 -1,976 Descending FlightAware ADS-B
Fri 11:16:36 PM 42.8330 -86.4090 234° Southwest 380 437 21,900 -2,047 Descending FlightAware ADS-B
Fri 11:17:16 PM 42.7910 -86.4870 234° Southwest 372 428 20,500 -2,025 Descending FlightAware ADS-B
Fri 11:17:56 PM 42.7510 -86.5620 234° Southwest 371 427 19,200 -1,976 Descending FlightAware ADS-B
Fri 11:18:41 PM 42.7070 -86.6450 234° Southwest 372 428 17,700 -1,976 Descending FlightAware ADS-B
Fri 11:19:21 PM 42.6670 -86.7190 234° Southwest 367 422 16,400 -2,100 Descending FlightAware ADS-B
Fri 11:20:01 PM 42.6260 -86.7950 234° Southwest 367 422 14,900 -2,118 Descending FlightAware ADS-B
Fri 11:20:46 PM 42.5810 -86.8790 234° Southwest 367 422 13,400 -1,976 Descending FlightAware ADS-B
Fri 11:21:26 PM 42.5430 -86.9490 234° Southwest 363 418 12,100 -1,976 Descending FlightAware ADS-B
Fri 11:22:11 PM 42.5000 -87.0290 234° Southwest 356 410 10,600 -1,482 Descending FlightAware ADS-B
Fri 11:22:51 PM 42.4620 -87.0990 234° Southwest 350 403 10,000 -514 Descending FlightAware ADS-B
Fri 11:23:21 PM 42.4430 -87.1590 247° West 345 397 10,000  Level FlightAware ADS-B
Fri 11:23:51 PM 42.4260 -87.2210 250° West 345 397 10,000  Level FlightAware ADS-B
Fri 11:24:16 PM 42.4110 -87.2730 249° West 346 398 10,000  Level FlightAware ADS-B
Fri 11:24:31 PM 42.4010 -87.3100 250° West 346 398 10,000  Level FlightAware ADS-B
Fri 11:24:56 PM 42.3890 -87.3550 250° West 346 398 10,000  Level FlightAware ADS-B
Fri 11:25:11 PM 42.3800 -87.3860 249° West 346 398 10,000  Level FlightAware ADS-B
Fri 11:25:41 PM 42.3620 -87.4510 249° West 344 396 10,000  Level FlightAware ADS-B
Fri 11:26:06 PM 42.3500 -87.4960 250° West 344 396 10,000  Level FlightAware ADS-B
Fri 11:26:21 PM 42.3400 -87.5240 244° Southwest 348 400 10,000  Level FlightAware ADS-B
Fri 11:26:31 PM 42.3260 -87.5480 232° Southwest 353 406 10,000  Level FlightAware ADS-B
Fri 11:27:06 PM 42.2820 -87.5960 219° Southwest 358 412 10,000  Level FlightAware ADS-B
Fri 11:27:31 PM 42.2510 -87.6280 217° Southwest 359 413 10,000  Level FlightAware ADS-B
Fri 11:28:01 PM 42.2120 -87.6700 219° Southwest 360 414 10,000  Level FlightAware ADS-B
Fri 11:28:16 PM 42.1900 -87.6930 218° Southwest 360 414 10,000  Level FlightAware ADS-B
Fri 11:28:41 PM 42.1630 -87.7210 218° Southwest 361 415 10,000 -436 Level FlightAware ADS-B
Fri 11:29:11 PM 42.1230 -87.7630 218° Southwest 353 406 9,600 -1,200 Descending FlightAware ADS-B
Fri 11:29:26 PM 42.1010 -87.7950 227° Southwest 346 398 9,100 -1,600 Descending FlightAware ADS-B
Fri 11:29:41 PM 42.0940 -87.8190 249° West 337 388 8,800 -1,050 Descending FlightAware ADS-B
Fri 11:30:06 PM 42.0920 -87.8720 267° West 313 360 8,400 -900 Descending FlightAware ADS-B
Fri 11:30:21 PM 42.0920 -87.9010 270° West 305 351 8,200 -1,050 Descending FlightAware ADS-B
Fri 11:30:46 PM 42.0920 -87.9500 270° West 292 336 7,700 -1,200 Descending FlightAware ADS-B
Fri 11:31:16 PM 42.0920 -88.0040 270° West 281 323 7,100 -873 Descending FlightAware ADS-B
Fri 11:31:41 PM 42.0920 -88.0440 270° West 265 305 6,900 -600 Descending FlightAware ADS-B
Fri 11:32:06 PM 42.0920 -88.0760 270° West 257 296 6,600 -1,091 Descending FlightAware ADS-B
Fri 11:32:36 PM 42.0900 -88.1340 267° West 251 289 5,900 -1,108 Descending FlightAware ADS-B
Fri 11:33:11 PM 42.0810 -88.1850 257° West 237 273 5,400 -933 Descending FlightAware ADS-B
Fri 11:33:21 PM 42.0780 -88.2000 255° West 234 269 5,200 -1,050 Descending FlightAware ADS-B
Fri 11:33:51 PM 42.0620 -88.2380 240° Southwest 253 291 4,700 -1,067 Descending FlightAware ADS-B
Fri 11:34:06 PM 42.0470 -88.2460 202° Southwest 251 289 4,400 -857 Descending FlightAware ADS-B
Fri 11:34:26 PM 42.0260 -88.2470 182° South 238 274 4,200 -480 Descending FlightAware ADS-B
Fri 11:34:56 PM 41.9960 -88.2380 167° South 207 238 4,000 -218 Descending FlightAware ADS-B
Fri 11:35:21 PM 41.9830 -88.2120 124° Southeast 197 227 4,000  Level FlightAware ADS-B
Fri 11:35:56 PM 41.9690 -88.1760 118° Southeast 181 208 4,000  Level FlightAware ADS-B
Fri 11:36:16 PM 41.9690 -88.1550 90° East 182 209 4,000 -764 Level FlightAware ADS-B
Fri 11:36:51 PM 41.9690 -88.1120 90° East 180 207 3,300 -1,108 Descending FlightAware ADS-B
Fri 11:37:21 PM 41.9690 -88.0820 90° East 172 198 2,800 -857 Descending FlightAware ADS-B
Fri 11:37:26 PM 41.9680 -88.0770 105° East 177 204 2,800 -600 Level FlightAware ADS-B
Fri 11:38:01 PM 41.9690 -88.0390 88° East 175 201 2,400 -533 Descending FlightAware ADS-B
Fri 11:38:11 PM 41.9690 -88.0280 90° East 162 186 2,400 -933 Level FlightAware ADS-B
Fri 11:38:46 PM 41.9680 -87.9920 92° East 166 191 1,700 -1,067 Descending FlightAware ADS-B
Fri 11:38:56 PM 41.9680 -87.9840 90° East 162 186 1,600 -1,050 Descending FlightAware ADS-B
Fri 11:39:26 PM 41.9690 -87.9530 88° East 159 183 1,000 -1,200 Descending FlightAware ADS-B

Login

Don't have an account? Register now (free) for customized features, flight alerts, and more!